Time;durP1;ratioP1;P1;durP2;ratioP2;P2;SDS_P1;SDS_P2;PMS_P1;PMS_P2;Temp;Humidity;BMP_temperature;BMP_pressure;BME280_temperature;BME280_humidity;BME280_pressure;Samples;Min_cycle;Max_cycle;Signal;HPM_P1;HPM_P2
2022/05/02 00:03:13;;;;;;;2.20;2.00;;;;;;;19.79;32.45;102025.91;16141667;19;129552;-54
2022/05/02 00:08:35;;;;;;;3.15;1.98;;;;;;;19.76;32.17;102026.38;16140335;19;129080;-56
2022/05/02 00:13:57;;;;;;;2.38;1.60;;;;;;;19.75;32.19;102019.13;16137223;19;130697;-55
2022/05/02 00:19:18;;;;;;;3.33;1.33;;;;;;;19.74;32.08;102017.41;16134430;19;129421;-55
2022/05/02 00:24:40;;;;;;;2.47;1.50;;;;;;;19.73;32.51;102012.94;16139020;19;129683;-55
2022/05/02 00:30:02;;;;;;;1.40;1.20;;;;;;;19.71;32.36;102002.06;16139003;19;129400;-56
2022/05/02 00:35:24;;;;;;;2.05;1.52;;;;;;;19.72;32.08;101997.34;16137984;19;129325;-56
2022/05/02 00:40:47;;;;;;;2.13;1.55;;;;;;;19.68;32.03;102000.59;16133602;19;129253;-55
2022/05/02 00:46:19;;;;;;;1.80;1.70;;;;;;;19.67;31.96;101985.03;16139323;19;131844;-54
2022/05/02 00:51:41;;;;;;;2.83;1.70;;;;;;;19.65;32.32;101987.16;16137104;19;129916;-54
2022/05/02 00:57:07;;;;;;;2.45;1.83;;;;;;;19.63;32.02;101983.75;16136204;19;130625;-57
2022/05/02 01:02:28;;;;;;;1.95;1.25;;;;;;;19.62;32.51;101973.72;16139067;19;128990;-55
2022/05/02 01:07:50;;;;;;;2.88;1.95;;;;;;;19.61;32.28;101974.81;16137240;19;129841;-56
2022/05/02 01:13:40;;;;;;;2.13;1.60;;;;;;;19.62;32.30;101982.06;16135730;19;129754;-54
2022/05/02 01:19:02;;;;;;;2.08;1.55;;;;;;;19.59;32.48;101976.97;16132254;19;129293;-54
2022/05/02 01:24:38;;;;;;;2.65;1.70;;;;;;;19.60;32.04;101975.88;16136743;19;129464;-54
2022/05/02 01:30:00;;;;;;;2.20;1.63;;;;;;;19.56;32.01;101969.13;16134753;19;129189;-54
2022/05/02 01:35:22;;;;;;;1.98;1.58;;;;;;;19.55;32.10;101970.19;16135888;19;129143;-53
2022/05/02 01:40:43;;;;;;;3.17;1.70;;;;;;;19.54;32.53;101968.47;16135322;19;129727;-54
2022/05/02 01:46:07;;;;;;;2.10;1.30;;;;;;;19.54;32.06;101965.72;16135020;19;130567;-55
2022/05/02 01:51:29;;;;;;;2.22;1.40;;;;;;;19.52;32.19;101970.63;16132126;19;131466;-54
2022/05/02 01:56:51;;;;;;;1.88;1.60;;;;;;;19.50;32.52;101968.09;16130930;19;129374;-55
2022/05/02 02:02:12;;;;;;;2.35;1.75;;;;;;;19.49;32.47;101959.97;16134650;19;129206;-53
2022/05/02 02:07:34;;;;;;;3.13;1.60;;;;;;;19.48;32.05;101961.91;16135088;19;129451;-56
2022/05/02 02:12:56;;;;;;;3.55;1.33;;;;;;;19.48;32.06;101958.28;16131633;19;130358;-52
2022/05/02 02:18:18;;;;;;;2.67;1.52;;;;;;;19.48;32.27;101958.28;16131688;19;129298;-54
2022/05/02 02:23:42;;;;;;;1.98;1.55;;;;;;;19.47;32.54;101954.66;16133501;19;130647;-53
2022/05/02 02:29:03;;;;;;;1.42;1.33;;;;;;;19.46;32.16;101960.41;16147710;19;129517;-55
2022/05/02 02:34:25;;;;;;;2.47;1.52;;;;;;;19.45;32.10;101958.72;16147165;19;129827;-55
2022/05/02 02:39:47;;;;;;;1.95;1.52;;;;;;;19.43;32.47;101955.34;16141825;19;130009;-55
2022/05/02 02:45:09;;;;;;;2.58;1.80;;;;;;;19.42;32.26;101945.31;16145848;19;129471;-56
2022/05/02 02:50:31;;;;;;;1.90;1.65;;;;;;;19.41;32.50;101941.69;16142474;19;130144;-55
2022/05/02 02:55:53;;;;;;;2.45;1.60;;;;;;;19.40;32.09;101931.66;16144472;19;129922;-56
2022/05/02 03:01:14;;;;;;;5.35;2.17;;;;;;;19.37;32.27;101935.75;16147497;19;130335;-54
2022/05/02 03:06:36;;;;;;;1.30;1.20;;;;;;;19.38;32.42;101933.84;16145487;19;129875;-52
2022/05/02 03:11:58;;;;;;;1.52;1.42;;;;;;;19.37;32.21;101923.81;16138862;19;130504;-53
2022/05/02 03:17:20;;;;;;;1.77;1.50;;;;;;;19.36;32.00;101922.94;16140212;19;129789;-57
2022/05/02 03:22:42;;;;;;;3.25;1.48;;;;;;;19.35;32.49;101931.50;16144357;19;129788;-55
2022/05/02 03:28:04;;;;;;;2.40;1.30;;;;;;;19.33;32.51;101928.09;16143391;19;128943;-56
2022/05/02 03:33:26;;;;;;;1.70;1.38;;;;;;;19.32;32.48;101927.25;16146058;19;129596;-56
2022/05/02 03:38:48;;;;;;;2.33;1.52;;;;;;;19.30;32.41;101929.41;16141959;19;128819;-54
2022/05/02 03:44:09;;;;;;;3.40;1.17;;;;;;;19.28;32.57;101928.78;16143811;19;130348;-53
2022/05/02 03:49:31;;;;;;;1.42;1.10;;;;;;;19.29;32.08;101927.72;16143530;19;129498;-56
2022/05/02 03:54:53;;;;;;;2.80;1.55;;;;;;;19.27;32.26;101920.66;16141855;19;129259;-56
2022/05/02 04:00:15;;;;;;;4.47;1.45;;;;;;;19.26;32.30;101922.59;16137886;19;129078;-57
2022/05/02 04:05:43;;;;;;;3.55;1.45;;;;;;;19.24;32.11;101924.75;16141868;19;129887;-56
2022/05/02 04:11:05;;;;;;;1.92;1.67;;;;;;;19.22;32.29;101922.22;16140283;19;129746;-56
2022/05/02 04:16:27;;;;;;;1.95;1.48;;;;;;;19.21;32.01;101919.66;16135642;19;128938;-53
2022/05/02 04:21:49;;;;;;;3.53;1.40;;;;;;;19.20;32.25;101920.72;16140382;19;129312;-53
2022/05/02 04:27:10;;;;;;;1.30;1.17;;;;;;;19.19;32.18;101930.13;16139961;19;129140;-52
2022/05/02 04:32:32;;;;;;;3.05;1.63;;;;;;;19.18;32.39;101925.66;16138343;19;128894;-55
2022/05/02 04:37:54;;;;;;;2.00;1.50;;;;;;;19.16;32.39;101928.63;16138438;19;128926;-53
2022/05/02 04:43:15;;;;;;;1.58;1.23;;;;;;;19.17;32.03;101932.25;16141252;19;130487;-53
2022/05/02 04:48:37;;;;;;;2.38;1.85;;;;;;;19.15;32.13;101931.63;16139493;19;130995;-54
2022/05/02 04:53:59;;;;;;;3.55;1.67;;;;;;;19.13;31.96;101933.78;16132814;19;129358;-55
2022/05/02 04:59:20;;;;;;;1.60;1.50;;;;;;;19.12;32.25;101932.06;16135403;19;130341;-54
2022/05/02 05:04:42;;;;;;;1.83;1.52;;;;;;;19.13;32.33;101933.78;16139131;19;130625;-54
2022/05/02 05:10:06;;;;;;;2.47;1.60;;;;;;;19.13;32.05;101936.56;16135806;19;129670;-56
2022/05/02 05:21:49;;;;;;;9.70;1.98;;;;;;;19.16;32.34;101934.16;16134916;19;129295;-54
2022/05/02 05:27:29;;;;;;;1.45;1.15;;;;;;;19.24;32.55;101933.06;16133293;19;130593;-53
2022/05/02 05:33:09;;;;;;;3.35;1.17;;;;;;;19.33;32.59;101934.47;16134864;19;129196;-54
2022/05/02 05:39:01;;;;;;;1.80;1.17;;;;;;;19.41;32.49;101930.59;16132937;19;129915;-54
2022/05/02 05:44:53;;;;;;;1.20;1.02;;;;;;;19.49;32.17;101929.44;16135242;19;129592;-54
2022/05/02 05:50:23;;;;;;;4.40;1.20;;;;;;;19.55;32.60;101938.78;16132397;19;129228;-53
2022/05/02 05:56:13;;;;;;;3.15;1.20;;;;;;;19.60;32.27;101938.97;16133235;19;130825;-54
2022/05/02 06:01:43;;;;;;;3.10;1.30;;;;;;;19.69;32.25;101943.97;16141938;19;129110;-54
2022/05/02 06:07:07;;;;;;;1.42;1.13;;;;;;;19.76;32.38;101948.63;16148875;19;130366;-54
2022/05/02 06:12:32;;;;;;;3.33;1.27;;;;;;;19.81;32.26;101948.81;16147511;19;129386;-51
2022/05/02 06:23:43;;;;;;;4.05;1.30;;;;;;;19.90;32.57;101949.31;16147838;19;129729;-55
2022/05/02 06:29:08;;;;;;;2.03;1.05;;;;;;;19.96;32.40;101940.91;16145153;19;129577;-53
2022/05/02 06:34:30;;;;;;;1.77;1.20;;;;;;;20.00;32.26;101946.88;16147376;19;130483;-54
2022/05/02 06:40:00;;;;;;;2.50;1.30;;;;;;;20.06;32.33;101947.91;16141581;19;130379;-55
2022/05/02 06:45:37;;;;;;;3.45;1.27;;;;;;;20.10;32.05;101946.34;16148025;19;129615;-52
2022/05/02 06:51:36;;;;;;;2.33;1.45;;;;;;;20.13;31.99;101948.69;16144382;19;128823;-55
2022/05/02 06:57:28;;;;;;;1.48;0.98;;;;;;;20.19;32.20;101947.75;16137867;19;128915;-54
2022/05/02 07:02:56;;;;;;;1.63;1.00;;;;;;;20.21;31.99;101951.13;16138647;19;129425;-53
2022/05/02 07:08:29;;;;;;;4.55;1.10;;;;;;;20.24;32.05;101945.13;16135194;19;129604;-53
2022/05/02 07:14:08;;;;;;;3.65;1.20;;;;;;;20.28;31.83;101946.38;16132999;19;129490;-51
2022/05/02 07:19:48;;;;;;;2.38;1.15;;;;;;;20.33;31.56;101947.56;16136568;19;129559;-52
2022/05/02 07:25:13;;;;;;;1.55;1.25;;;;;;;20.34;31.92;101949.28;16135370;19;130288;-56
2022/05/02 07:30:36;;;;;;;2.00;1.30;;;;;;;20.36;31.64;101941.56;16142757;19;129636;-52
2022/05/02 07:36:02;;;;;;;2.20;1.42;;;;;;;20.39;31.74;101946.66;16144066;19;130302;-54
2022/05/02 07:41:25;;;;;;;2.97;1.50;;;;;;;20.40;31.84;101940.03;16137079;19;129533;-56
2022/05/02 07:46:50;;;;;;;1.83;1.25;;;;;;;20.43;31.36;101940.41;16140293;19;130290;-53
2022/05/02 07:52:19;;;;;;;3.33;1.30;;;;;;;20.45;31.53;101938.25;16139903;19;129565;-54
2022/05/02 07:57:42;;;;;;;1.40;1.30;;;;;;;20.45;31.16;101945.72;16142390;19;129575;-55
2022/05/02 08:03:04;;;;;;;3.38;1.60;;;;;;;20.45;31.30;101935.47;16145231;19;129964;-53
2022/05/02 08:08:35;;;;;;;2.47;1.33;;;;;;;20.45;31.06;101940.16;16142836;19;129362;-52
2022/05/02 08:14:22;;;;;;;1.85;1.45;;;;;;;20.44;31.06;101944.00;16139070;19;129388;-54
2022/05/02 08:20:01;;;;;;;2.25;2.05;;;;;;;20.41;30.82;101942.56;16139560;19;129185;-53
2022/05/02 08:31:06;;;;;;;2.20;1.50;;;;;;;20.39;30.63;101935.53;16138772;19;129375;-64
2022/05/02 08:37:06;;;;;;;1.88;1.60;;;;;;;20.38;30.40;101939.41;16141162;19;129626;-60
2022/05/02 08:43:05;;;;;;;2.78;2.08;;;;;;;20.39;30.59;101941.09;16132508;19;129676;-58
2022/05/02 08:55:22;;;;;;;1.98;1.40;;;;;;;20.36;30.42;101936.88;16132365;19;130582;-52
2022/05/02 09:01:11;;;;;;;2.05;1.30;;;;;;;20.37;29.99;101940.47;16128730;19;130591;-58
2022/05/02 09:07:10;;;;;;;2.90;1.35;;;;;;;20.36;30.32;101934.09;16127065;19;131459;-59
2022/05/02 09:12:50;;;;;;;2.38;1.40;;;;;;;20.33;29.90;101931.78;16134117;19;129508;-56
2022/05/02 09:18:59;;;;;;;2.22;1.40;;;;;;;20.35;30.24;101928.75;16137333;19;129282;-60
2022/05/02 09:24:45;;;;;;;4.20;1.63;;;;;;;20.33;29.89;101929.00;16129567;19;129762;-54
2022/05/02 09:30:58;;;;;;;3.03;1.63;;;;;;;20.29;29.71;101920.28;16128965;19;128956;-60
2022/05/02 09:36:33;;;;;;;2.45;1.83;;;;;;;20.28;30.01;101915.81;16146705;19;129061;-61
2022/05/02 09:42:20;;;;;;;1.97;1.53;;;;;;;20.25;29.83;101919.03;16153060;19;129992;-53
2022/05/02 09:53:50;;;;;;;1.90;1.55;;;;;;;20.21;29.70;101912.25;16154124;19;129625;-55
2022/05/02 09:59:26;;;;;;;2.30;1.38;;;;;;;20.21;29.71;101905.84;16162843;19;129324;-55
2022/05/02 10:05:05;;;;;;;1.80;1.15;;;;;;;20.19;29.74;101908.84;16166827;19;129558;-55
2022/05/02 10:10:39;;;;;;;3.45;1.17;;;;;;;20.18;29.80;101896.06;16164462;19;129410;-53
2022/05/02 10:16:10;;;;;;;2.33;1.17;;;;;;;20.18;29.53;101892.41;16160298;19;129705;-55
2022/05/02 10:21:47;;;;;;;2.55;1.63;;;;;;;20.17;29.68;101894.34;16159636;19;128860;-54
2022/05/02 10:27:18;;;;;;;2.50;1.85;;;;;;;20.11;29.38;101890.59;16162958;19;129827;-55
2022/05/02 10:32:51;;;;;;;5.45;1.67;;;;;;;20.09;29.36;101891.88;16164430;19;130162;-50
2022/05/02 10:38:28;;;;;;;5.70;1.30;;;;;;;20.07;29.83;101889.34;16157931;19;129225;-55
2022/05/02 10:43:56;;;;;;;1.50;1.40;;;;;;;20.04;29.36;101888.97;16163838;19;130531;-54
2022/05/02 10:49:36;;;;;;;2.92;1.60;;;;;;;20.02;29.26;101882.78;16147467;19;129184;-53
2022/05/02 10:55:07;;;;;;;2.15;1.63;;;;;;;20.00;29.11;101880.22;16146733;19;129351;-55
2022/05/02 11:00:30;;;;;;;1.63;1.52;;;;;;;19.95;29.41;101872.56;16144747;19;129554;-54
2022/05/02 11:06:22;;;;;;;2.10;1.25;;;;;;;19.96;29.26;101862.31;16148202;19;129262;-55
2022/05/02 11:11:49;;;;;;;1.60;1.30;;;;;;;19.92;29.35;101859.16;16147562;19;129658;-53
2022/05/02 11:17:47;;;;;;;3.45;1.30;;;;;;;19.91;28.98;101856.59;16146930;19;129440;-55
2022/05/02 11:23:34;;;;;;;1.13;0.93;;;;;;;19.94;29.38;101856.97;16145274;19;129321;-52
2022/05/02 11:29:05;;;;;;;;;;;;;;;19.88;28.97;101854.31;16146745;19;129232;-56
2022/05/02 11:34:42;;;;;;;1.83;1.30;;;;;;;19.92;28.96;101848.06;16148882;19;129849;-52
2022/05/02 11:40:08;;;;;;;1.70;1.08;;;;;;;19.92;29.43;101839.72;16142336;19;129031;-56
2022/05/02 11:45:35;;;;;;;1.45;0.95;;;;;;;19.93;29.52;101838.66;16144915;19;129404;-52
2022/05/02 11:51:03;;;;;;;1.60;1.50;;;;;;;19.93;28.92;101841.44;16141387;19;129229;-51
2022/05/02 11:56:41;;;;;;;1.10;0.90;;;;;;;19.94;28.92;101837.53;16142225;19;130004;-52
2022/05/02 12:02:04;;;;;;;2.47;1.08;;;;;;;19.91;29.04;101824.16;16138240;19;129308;-54
2022/05/02 12:07:32;;;;;;;1.70;1.23;;;;;;;19.91;29.12;101820.50;16142367;19;129599;-50
2022/05/02 12:12:54;;;;;;;2.95;1.50;;;;;;;19.89;29.26;101820.75;16141613;19;129708;-55
2022/05/02 12:18:16;;;;;;;2.03;1.17;;;;;;;19.88;29.08;101819.03;16138802;19;129654;-55
2022/05/02 12:23:41;;;;;;;3.85;1.40;;;;;;;19.87;29.02;101820.13;16142133;19;129340;-52
2022/05/02 12:29:12;;;;;;;;;;;;;;;19.83;29.00;101810.56;16143355;19;128974;-54
2022/05/02 12:34:43;;;;;;;2.72;1.10;;;;;;;19.86;28.87;101809.25;16135921;19;130023;-50
2022/05/02 12:40:11;;;;;;;1.58;1.25;;;;;;;19.84;28.60;101806.69;16132402;19;129642;-55
2022/05/02 12:45:44;;;;;;;1.77;1.20;;;;;;;19.84;28.69;101812.25;16130726;19;130153;-49
2022/05/02 12:51:08;;;;;;;4.30;1.20;;;;;;;19.83;29.01;101800.31;16133648;19;129832;-55
2022/05/02 12:56:29;;;;;;;1.35;1.20;;;;;;;19.84;28.67;101801.16;16137027;19;128905;-56
2022/05/02 13:01:51;;;;;;;3.83;1.75;;;;;;;19.83;28.77;101793.91;16134482;19;129247;-54
2022/05/02 13:07:13;;;;;;;4.03;1.48;;;;;;;19.82;28.59;101786.63;16139435;19;129371;-54
2022/05/02 13:12:35;;;;;;;2.25;1.17;;;;;;;19.81;28.79;101784.97;16129448;19;130033;-52
2022/05/02 13:18:07;;;;;;;1.58;1.20;;;;;;;19.81;28.84;101774.69;16133167;19;130071;-55
2022/05/02 13:23:52;;;;;;;1.23;1.00;;;;;;;19.82;28.66;101775.53;16132409;19;129494;-54
2022/05/02 13:29:28;;;;;;;2.20;1.02;;;;;;;19.83;28.56;101755.03;16137349;19;129883;-55
2022/05/02 13:34:51;;;;;;;1.77;1.40;;;;;;;19.80;28.49;101766.63;16137369;19;129585;-54
2022/05/02 13:40:21;;;;;;;1.52;0.93;;;;;;;19.82;28.42;101758.88;16133715;19;128909;-51
2022/05/02 13:46:13;;;;;;;4.00;1.33;;;;;;;19.80;28.60;101755.50;16137656;19;129869;-52
2022/05/02 13:52:13;;;;;;;1.85;1.40;;;;;;;19.80;28.30;101758.28;16132935;19;129028;-54
2022/05/02 13:58:08;;;;;;;3.72;1.60;;;;;;;19.76;28.30;101745.94;16136073;19;129249;-52
2022/05/02 14:03:48;;;;;;;4.03;1.50;;;;;;;19.76;28.04;101741.22;16134053;19;130566;-55
2022/05/02 14:09:10;;;;;;;2.42;1.33;;;;;;;19.75;28.15;101735.91;16134737;19;129630;-55
2022/05/02 14:14:31;;;;;;;3.55;1.70;;;;;;;19.74;27.89;101735.09;16130546;19;128931;-54
2022/05/02 14:20:11;;;;;;;2.40;1.30;;;;;;;19.76;27.94;101738.44;16133702;19;130123;-53
2022/05/02 14:25:39;;;;;;;2.08;1.17;;;;;;;19.75;28.22;101722.91;16149383;19;130818;-54
2022/05/02 14:31:02;;;;;;;1.42;1.25;;;;;;;19.76;28.27;101720.97;16149419;19;131680;-56
2022/05/02 14:36:26;;;;;;;3.22;1.73;;;;;;;19.75;27.66;101720.13;16147324;19;129994;-54
2022/05/02 14:41:48;;;;;;;4.38;1.35;;;;;;;19.73;28.17;101716.72;16142931;19;128876;-49
2022/05/02 14:47:16;;;;;;;2.30;1.33;;;;;;;19.75;27.97;101710.94;16146230;19;129389;-55
2022/05/02 14:52:39;;;;;;;1.90;1.50;;;;;;;19.76;27.82;101707.06;16143647;19;128916;-54
2022/05/02 14:58:02;;;;;;;1.92;1.23;;;;;;;19.77;28.12;101706.00;16145923;19;129472;-55
2022/05/02 15:03:32;;;;;;;2.13;1.70;;;;;;;19.78;27.78;101702.97;16142448;19;128967;-54
2022/05/02 15:09:06;;;;;;;2.75;1.20;;;;;;;19.78;27.95;101707.69;16146510;19;129187;-53
2022/05/02 15:14:58;;;;;;;1.48;1.33;;;;;;;19.77;27.83;101689.34;16143315;19;129018;-55
2022/05/02 15:20:31;;;;;;;1.60;1.02;;;;;;;19.76;28.01;101687.66;16142041;19;130244;-55
2022/05/02 15:25:55;;;;;;;2.08;1.23;;;;;;;19.74;27.73;101689.81;16143200;19;131016;-56
2022/05/02 15:37:21;;;;;;;2.22;1.50;;;;;;;19.69;27.32;101680.25;16141328;19;129149;-54
2022/05/02 15:42:43;;;;;;;5.45;1.23;;;;;;;19.71;28.18;101670.84;16137488;19;129503;-53
2022/05/02 15:48:34;;;;;;;2.28;1.50;;;;;;;19.78;28.09;101674.38;16142005;19;129202;-52
2022/05/02 15:54:25;;;;;;;4.53;2.53;;;;;;;19.75;27.62;101672.94;16133445;19;129497;-54
2022/05/02 15:59:48;;;;;;;4.65;2.30;;;;;;;19.74;27.67;101664.81;16137778;19;129968;-50
2022/05/02 16:05:13;;;;;;;5.05;2.00;;;;;;;19.72;27.71;101666.97;16144353;19;129521;-54
2022/05/02 16:10:43;;;;;;;6.70;2.63;;;;;;;19.75;27.68;101670.16;16144234;19;129136;-56
2022/05/02 16:16:22;;;;;;;37.72;8.48;;;;;;;19.81;28.34;101671.97;16138125;19;129825;-56
2022/05/02 16:21:45;;;;;;;44.97;13.93;;;;;;;19.83;28.92;101668.94;16138380;19;129416;-52
2022/05/02 16:27:18;;;;;;;31.00;11.75;;;;;;;19.87;29.07;101672.13;16137633;19;129773;-56
2022/05/02 16:32:45;;;;;;;34.42;10.60;;;;;;;19.88;29.52;101671.88;16142455;19;131158;-55
2022/05/02 16:38:09;;;;;;;21.38;8.00;;;;;;;19.89;29.54;101665.25;16140109;19;129598;-54
2022/05/02 16:43:31;;;;;;;21.45;8.23;;;;;;;19.93;29.89;101665.59;16131062;19;129385;-55
2022/05/02 16:48:54;;;;;;;20.23;7.43;;;;;;;19.95;29.81;101672.59;16138975;19;130248;-54
2022/05/02 16:54:21;;;;;;;18.58;6.78;;;;;;;19.97;29.48;101667.66;16125800;19;130737;-53
2022/05/02 16:59:43;;;;;;;16.98;6.18;;;;;;;19.98;29.37;101672.13;16131339;19;129716;-51
2022/05/02 17:05:08;;;;;;;21.25;6.00;;;;;;;19.99;29.54;101664.66;16135049;19;129970;-54
2022/05/02 17:10:29;;;;;;;21.60;5.65;;;;;;;19.99;29.23;101673.00;16135863;19;130167;-55
2022/05/02 17:16:11;;;;;;;25.80;6.07;;;;;;;20.03;29.16;101665.91;16123525;19;129475;-52
2022/05/02 17:21:51;;;;;;;22.55;5.80;;;;;;;20.15;29.57;101660.38;16127802;19;129595;-55
2022/05/02 17:27:16;;;;;;;19.33;4.60;;;;;;;20.42;29.00;101668.28;16127958;19;130895;-56
2022/05/02 17:32:46;;;;;;;13.38;4.47;;;;;;;20.75;28.70;101672.38;16125807;19;129794;-53
2022/05/02 17:38:09;;;;;;;12.43;4.25;;;;;;;21.02;28.87;101672.72;16132053;19;130426;-55
2022/05/02 17:43:31;;;;;;;20.35;4.25;;;;;;;21.19;28.70;101672.81;16126213;19;130482;-55
2022/05/02 17:48:56;;;;;;;13.25;3.63;;;;;;;21.28;28.70;101670.50;16133275;19;129063;-53
2022/05/02 17:54:18;;;;;;;15.30;3.65;;;;;;;21.28;28.90;101680.78;16132464;19;129923;-52
2022/05/02 17:59:40;;;;;;;11.55;3.38;;;;;;;21.18;28.86;101679.47;16154729;19;129123;-50
2022/05/02 18:05:03;;;;;;;16.70;2.90;;;;;;;21.09;28.92;101689.28;16154604;19;129054;-53
2022/05/02 18:10:33;;;;;;;11.23;3.28;;;;;;;20.99;28.58;101691.84;16149131;19;129714;-52
2022/05/02 18:16:14;;;;;;;9.00;3.15;;;;;;;20.90;28.64;101692.22;16150634;19;129160;-53
2022/05/02 18:21:40;;;;;;;11.18;2.92;;;;;;;20.81;28.71;101703.97;16151373;19;130450;-53
2022/05/02 18:27:07;;;;;;;6.70;2.75;;;;;;;20.75;28.60;101706.59;16149382;19;130067;-50
2022/05/02 18:32:31;;;;;;;15.27;2.80;;;;;;;20.70;29.12;101709.25;16145996;19;129234;-50
2022/05/02 18:38:04;;;;;;;8.10;2.78;;;;;;;20.70;28.91;101720.38;16152293;19;129753;-51
2022/05/02 18:43:37;;;;;;;10.55;2.90;;;;;;;20.68;29.35;101727.25;16148280;19;129872;-51
2022/05/02 18:54:55;;;;;;;8.02;2.33;;;;;;;20.58;29.14;101734.25;16148405;19;130336;-56
2022/05/02 19:00:23;;;;;;;14.60;2.15;;;;;;;20.52;28.90;101735.22;16144619;19;129625;-54
2022/05/02 19:06:04;;;;;;;7.78;2.20;;;;;;;20.46;29.13;101736.16;16146591;19;129462;-56
2022/05/02 19:11:28;;;;;;;8.93;2.00;;;;;;;20.41;29.04;101745.22;16144240;19;129399;-53
2022/05/02 19:16:53;;;;;;;11.23;1.85;;;;;;;20.43;29.22;101750.56;16146884;19;129688;-56
2022/05/02 19:22:49;;;;;;;9.88;1.65;;;;;;;20.56;29.55;101753.09;16142913;19;128884;-52
2022/05/02 19:28:13;;;;;;;7.70;1.40;;;;;;;20.82;29.48;101764.06;16141166;19;130278;-57
2022/05/02 19:33:40;;;;;;;13.43;2.00;;;;;;;21.06;28.93;101768.53;16146316;19;129702;-56
2022/05/02 19:39:14;;;;;;;9.13;1.45;;;;;;;21.21;29.03;101776.38;16143873;19;130260;-52
2022/05/02 19:44:40;;;;;;;4.85;1.45;;;;;;;21.26;29.24;101778.41;16138004;19;129765;-55
2022/05/02 19:50:06;;;;;;;6.25;1.30;;;;;;;21.24;29.06;101783.38;16143426;19;129242;-53
2022/05/02 19:55:29;;;;;;;21.17;1.77;;;;;;;21.18;29.11;101782.41;16138324;19;129769;-54
2022/05/02 20:00:52;;;;;;;12.57;1.38;;;;;;;21.06;29.12;101792.72;16142342;19;131002;-54
2022/05/02 20:06:14;;;;;;;9.13;1.50;;;;;;;20.96;29.23;101789.69;16142820;19;129054;-54
2022/05/02 20:11:36;;;;;;;11.77;1.52;;;;;;;20.87;29.33;101800.31;16141250;19;129491;-55
2022/05/02 20:17:01;;;;;;;12.82;1.98;;;;;;;20.85;29.13;101803.34;16144870;19;128889;-52
2022/05/02 20:22:23;;;;;;;21.33;1.63;;;;;;;20.89;29.36;101801.78;16138585;19;129103;-55
2022/05/02 20:27:45;;;;;;;9.77;1.17;;;;;;;20.95;29.41;101799.97;16140078;19;129704;-53
2022/05/02 20:38:47;;;;;;;4.25;1.23;;;;;;;21.05;29.44;101805.78;16140081;19;130150;-54
2022/05/02 20:44:18;;;;;;;4.68;1.40;;;;;;;21.03;29.01;101801.56;16137471;19;129731;-54
2022/05/02 20:49:55;;;;;;;9.35;1.63;;;;;;;20.98;29.23;101804.19;16139855;19;130679;-52
2022/05/02 20:55:17;;;;;;;9.93;1.67;;;;;;;20.89;29.44;101812.91;16134142;19;129591;-53
2022/05/02 21:00:39;;;;;;;15.32;1.60;;;;;;;20.82;29.45;101817.72;16137178;19;129202;-54
2022/05/02 21:06:01;;;;;;;6.60;1.63;;;;;;;20.70;29.39;101820.47;16135075;19;129395;-54
2022/05/02 21:11:41;;;;;;;9.35;1.50;;;;;;;20.60;29.00;101821.03;16137564;19;129340;-52
2022/05/02 21:17:18;;;;;;;5.15;1.40;;;;;;;20.52;29.16;101824.19;16136337;19;130450;-54
2022/05/02 21:23:22;;;;;;;5.60;1.30;;;;;;;20.44;29.34;101833.69;16133589;19;128929;-54
2022/05/02 21:29:05;;;;;;;6.35;1.27;;;;;;;20.37;29.17;101844.03;16136162;19;129509;-55
2022/05/02 21:34:51;;;;;;;6.55;1.42;;;;;;;20.32;29.00;101845.84;16135350;19;129003;-55
2022/05/02 21:40:16;;;;;;;2.80;1.37;;;;;;;20.26;29.12;101842.94;16134774;19;129637;-56
2022/05/02 21:45:38;;;;;;;3.47;1.23;;;;;;;20.21;29.15;101844.72;16134031;19;129866;-56
2022/05/02 21:51:00;;;;;;;3.63;1.20;;;;;;;20.17;28.89;101837.94;16133829;19;130589;-56
2022/05/02 21:56:21;;;;;;;1.70;1.08;;;;;;;20.13;29.31;101849.50;16127203;19;128898;-56
2022/05/02 22:01:48;;;;;;;6.47;1.00;;;;;;;20.11;29.05;101839.72;16131320;19;128943;-56
2022/05/02 22:07:10;;;;;;;2.70;1.00;;;;;;;20.08;28.99;101845.72;16132243;19;129574;-56
2022/05/02 22:12:32;;;;;;;2.70;1.00;;;;;;;20.05;28.87;101849.84;16132052;19;129204;-55
2022/05/02 22:17:54;;;;;;;1.63;1.10;;;;;;;20.03;28.94;101846.44;16132871;19;130040;-54
2022/05/02 22:23:16;;;;;;;1.65;0.80;;;;;;;20.02;28.70;101858.63;16128629;19;129359;-56
2022/05/02 22:28:38;;;;;;;0.88;0.80;;;;;;;20.01;29.19;101853.31;16131395;19;129725;-56
2022/05/02 22:34:00;;;;;;;1.60;0.77;;;;;;;20.00;29.12;101855.22;16133435;19;128904;-57
2022/05/02 22:39:21;;;;;;;1.50;0.82;;;;;;;19.97;28.75;101862.06;16132495;19;129871;-55
2022/05/02 22:44:43;;;;;;;1.00;0.80;;;;;;;19.94;28.93;101859.75;16139627;19;130604;-54
2022/05/02 22:50:06;;;;;;;1.73;0.90;;;;;;;19.92;28.94;101864.72;16146052;19;129273;-57
2022/05/02 22:55:28;;;;;;;2.70;0.70;;;;;;;19.90;28.67;101855.78;16141875;19;129515;-55
2022/05/02 23:00:53;;;;;;;0.80;0.80;;;;;;;19.90;29.08;101863.22;16145131;19;129437;-56
2022/05/02 23:06:32;;;;;;;1.38;0.60;;;;;;;19.88;28.93;101849.59;16145071;19;129257;-56
2022/05/02 23:11:56;;;;;;;2.40;0.65;;;;;;;19.85;29.11;101847.28;16145380;19;130635;-57
2022/05/02 23:17:20;;;;;;;1.70;0.70;;;;;;;19.83;28.86;101850.28;16145036;19;129853;-54
2022/05/02 23:22:43;;;;;;;1.17;0.77;;;;;;;19.80;28.58;101839.66;16140009;19;129443;-54
2022/05/02 23:28:05;;;;;;;0.98;0.80;;;;;;;19.78;29.00;101849.28;16142924;19;129829;-55
2022/05/02 23:33:52;;;;;;;1.13;0.68;;;;;;;19.77;28.63;101845.66;16145171;19;130403;-56
2022/05/02 23:39:19;;;;;;;1.20;0.50;;;;;;;19.74;28.65;101837.81;16143569;19;129196;-54
2022/05/02 23:45:24;;;;;;;0.68;0.63;;;;;;;19.73;28.85;101835.25;16139311;19;130142;-53
2022/05/02 23:51:00;;;;;;;0.77;0.60;;;;;;;19.73;29.08;101838.03;16134017;19;130169;-56
2022/05/02 23:56:22;;;;;;;0.50;0.50;;;;;;;19.69;28.88;101843.19;16126198;19;129197;-53
